Terminal Aerodrome Forecast
Issued by NWS

Home | Current Version | Previous Version | Graphics & Text | Print | Product List | Glossary On
Versions: 1 2 3 4 5 6 7 8 9 10 11 12 13 14 15 16 17 18 19 20 21 22 23 24 25 26
000
FTUS43 KABR 271300 AAA
TAFMBG
TAF AMD
KMBG 271316Z 2713/2812 16012KT P6SM BKN019 OVC070
     FM271400 14011KT 4SM -SN OVC020
     FM271800 16011KT P6SM BKN040
     FM280000 12006KT P6SM BKN150=

USA.gov is the U.S. government's official web portal to all federal, state and local government web resources and services.